sensor_id;sensor_type;location;lat;lon;timestamp;P1;durP1;ratioP1;P2;durP2;ratioP2
40537;SDS011;27925;41.874;12.526;2023-07-31T00:00:26;12.68;;;5.50;;
40537;SDS011;27925;41.874;12.526;2023-07-31T00:02:52;11.32;;;5.18;;
40537;SDS011;27925;41.874;12.526;2023-07-31T00:05:19;12.30;;;5.90;;
40537;SDS011;27925;41.874;12.526;2023-07-31T00:07:44;12.75;;;5.65;;
40537;SDS011;27925;41.874;12.526;2023-07-31T00:10:10;12.10;;;5.43;;
40537;SDS011;27925;41.874;12.526;2023-07-31T00:12:37;11.88;;;5.53;;
40537;SDS011;27925;41.874;12.526;2023-07-31T00:15:05;9.82;;;5.63;;
40537;SDS011;27925;41.874;12.526;2023-07-31T00:17:32;14.57;;;5.60;;
40537;SDS011;27925;41.874;12.526;2023-07-31T00:19:57;14.05;;;6.40;;
40537;SDS011;27925;41.874;12.526;2023-07-31T00:22:23;14.02;;;6.20;;
40537;SDS011;27925;41.874;12.526;2023-07-31T00:24:49;14.43;;;6.70;;
40537;SDS011;27925;41.874;12.526;2023-07-31T00:27:15;13.43;;;6.65;;
40537;SDS011;27925;41.874;12.526;2023-07-31T00:29:40;14.65;;;7.30;;
40537;SDS011;27925;41.874;12.526;2023-07-31T00:32:06;16.50;;;7.78;;
40537;SDS011;27925;41.874;12.526;2023-07-31T00:34:32;14.88;;;8.35;;
40537;SDS011;27925;41.874;12.526;2023-07-31T00:36:58;16.25;;;8.15;;
40537;SDS011;27925;41.874;12.526;2023-07-31T00:39:23;15.07;;;7.93;;
40537;SDS011;27925;41.874;12.526;2023-07-31T00:41:49;17.38;;;8.43;;
40537;SDS011;27925;41.874;12.526;2023-07-31T00:44:15;14.35;;;8.00;;
40537;SDS011;27925;41.874;12.526;2023-07-31T00:46:40;19.20;;;8.13;;
40537;SDS011;27925;41.874;12.526;2023-07-31T00:49:06;15.65;;;8.13;;
40537;SDS011;27925;41.874;12.526;2023-07-31T00:51:33;15.63;;;8.43;;
40537;SDS011;27925;41.874;12.526;2023-07-31T00:53:59;13.85;;;8.13;;
40537;SDS011;27925;41.874;12.526;2023-07-31T00:56:25;14.73;;;7.80;;
40537;SDS011;27925;41.874;12.526;2023-07-31T00:58:52;15.68;;;7.88;;
40537;SDS011;27925;41.874;12.526;2023-07-31T01:01:18;16.05;;;7.82;;
40537;SDS011;27925;41.874;12.526;2023-07-31T01:03:44;21.60;;;7.90;;
40537;SDS011;27925;41.874;12.526;2023-07-31T01:06:25;15.80;;;8.00;;
40537;SDS011;27925;41.874;12.526;2023-07-31T01:09:19;19.40;;;8.80;;
40537;SDS011;27925;41.874;12.526;2023-07-31T01:11:57;15.35;;;8.13;;
40537;SDS011;27925;41.874;12.526;2023-07-31T01:14:28;12.82;;;7.97;;
40537;SDS011;27925;41.874;12.526;2023-07-31T01:16:54;17.33;;;7.82;;
40537;SDS011;27925;41.874;12.526;2023-07-31T01:19:23;13.23;;;7.90;;
40537;SDS011;27925;41.874;12.526;2023-07-31T01:21:57;14.68;;;7.63;;
40537;SDS011;27925;41.874;12.526;2023-07-31T01:27:24;15.27;;;7.72;;
40537;SDS011;27925;41.874;12.526;2023-07-31T01:32:24;18.05;;;8.02;;
40537;SDS011;27925;41.874;12.526;2023-07-31T01:34:53;14.50;;;7.57;;
40537;SDS011;27925;41.874;12.526;2023-07-31T01:37:19;17.40;;;7.57;;
40537;SDS011;27925;41.874;12.526;2023-07-31T01:39:45;15.98;;;7.60;;
40537;SDS011;27925;41.874;12.526;2023-07-31T01:42:11;17.63;;;8.55;;
40537;SDS011;27925;41.874;12.526;2023-07-31T01:44:36;15.15;;;7.53;;
40537;SDS011;27925;41.874;12.526;2023-07-31T01:47:02;14.68;;;7.95;;
40537;SDS011;27925;41.874;12.526;2023-07-31T01:49:28;13.45;;;7.80;;
40537;SDS011;27925;41.874;12.526;2023-07-31T01:51:53;13.10;;;7.38;;
40537;SDS011;27925;41.874;12.526;2023-07-31T01:54:19;15.68;;;7.43;;
40537;SDS011;27925;41.874;12.526;2023-07-31T01:56:45;15.38;;;6.93;;
40537;SDS011;27925;41.874;12.526;2023-07-31T01:59:11;14.23;;;7.22;;
40537;SDS011;27925;41.874;12.526;2023-07-31T02:01:36;14.85;;;7.18;;
40537;SDS011;27925;41.874;12.526;2023-07-31T02:04:02;12.60;;;7.07;;
40537;SDS011;27925;41.874;12.526;2023-07-31T02:06:29;11.98;;;6.38;;
40537;SDS011;27925;41.874;12.526;2023-07-31T02:08:55;11.82;;;6.22;;
40537;SDS011;27925;41.874;12.526;2023-07-31T02:11:21;14.18;;;6.93;;
40537;SDS011;27925;41.874;12.526;2023-07-31T02:13:47;13.35;;;6.15;;
40537;SDS011;27925;41.874;12.526;2023-07-31T02:16:12;14.48;;;6.90;;
40537;SDS011;27925;41.874;12.526;2023-07-31T02:18:38;13.10;;;6.50;;
40537;SDS011;27925;41.874;12.526;2023-07-31T02:21:04;14.43;;;6.57;;
40537;SDS011;27925;41.874;12.526;2023-07-31T02:23:29;11.13;;;6.53;;
40537;SDS011;27925;41.874;12.526;2023-07-31T02:25:55;13.65;;;6.22;;
40537;SDS011;27925;41.874;12.526;2023-07-31T02:28:21;15.05;;;6.10;;
40537;SDS011;27925;41.874;12.526;2023-07-31T02:30:47;13.60;;;5.85;;
40537;SDS011;27925;41.874;12.526;2023-07-31T02:33:13;11.13;;;5.68;;
40537;SDS011;27925;41.874;12.526;2023-07-31T02:35:39;10.40;;;6.22;;
40537;SDS011;27925;41.874;12.526;2023-07-31T02:38:05;15.68;;;6.10;;
40537;SDS011;27925;41.874;12.526;2023-07-31T02:40:31;13.80;;;6.18;;
40537;SDS011;27925;41.874;12.526;2023-07-31T02:42:57;11.98;;;5.38;;
40537;SDS011;27925;41.874;12.526;2023-07-31T02:45:22;11.95;;;5.97;;
40537;SDS011;27925;41.874;12.526;2023-07-31T02:47:48;10.32;;;5.20;;
40537;SDS011;27925;41.874;12.526;2023-07-31T02:50:14;14.90;;;6.50;;
40537;SDS011;27925;41.874;12.526;2023-07-31T02:52:39;11.30;;;5.80;;
40537;SDS011;27925;41.874;12.526;2023-07-31T02:55:05;12.23;;;5.65;;
40537;SDS011;27925;41.874;12.526;2023-07-31T02:57:31;13.48;;;6.30;;
40537;SDS011;27925;41.874;12.526;2023-07-31T02:59:57;12.57;;;6.03;;
40537;SDS011;27925;41.874;12.526;2023-07-31T03:02:23;10.85;;;5.40;;
40537;SDS011;27925;41.874;12.526;2023-07-31T03:04:48;9.35;;;5.68;;
40537;SDS011;27925;41.874;12.526;2023-07-31T03:07:14;10.90;;;5.78;;
40537;SDS011;27925;41.874;12.526;2023-07-31T03:09:40;11.05;;;5.50;;
40537;SDS011;27925;41.874;12.526;2023-07-31T03:12:05;9.50;;;5.43;;
40537;SDS011;27925;41.874;12.526;2023-07-31T03:14:32;12.32;;;5.40;;
40537;SDS011;27925;41.874;12.526;2023-07-31T03:16:57;13.88;;;4.90;;
40537;SDS011;27925;41.874;12.526;2023-07-31T03:19:24;8.27;;;4.80;;
40537;SDS011;27925;41.874;12.526;2023-07-31T03:21:49;8.00;;;4.28;;
40537;SDS011;27925;41.874;12.526;2023-07-31T03:24:15;14.75;;;5.32;;
40537;SDS011;27925;41.874;12.526;2023-07-31T03:26:41;9.70;;;4.68;;
40537;SDS011;27925;41.874;12.526;2023-07-31T03:29:07;11.75;;;4.63;;
40537;SDS011;27925;41.874;12.526;2023-07-31T03:31:33;13.57;;;4.63;;
40537;SDS011;27925;41.874;12.526;2023-07-31T03:33:59;9.00;;;4.82;;
40537;SDS011;27925;41.874;12.526;2023-07-31T03:36:24;13.85;;;4.82;;
40537;SDS011;27925;41.874;12.526;2023-07-31T03:38:51;8.05;;;4.95;;
40537;SDS011;27925;41.874;12.526;2023-07-31T03:41:17;8.98;;;4.90;;
40537;SDS011;27925;41.874;12.526;2023-07-31T03:43:43;10.48;;;5.03;;
40537;SDS011;27925;41.874;12.526;2023-07-31T03:46:08;7.65;;;4.75;;
40537;SDS011;27925;41.874;12.526;2023-07-31T03:48:34;8.52;;;4.95;;
40537;SDS011;27925;41.874;12.526;2023-07-31T03:51:00;9.23;;;5.47;;
40537;SDS011;27925;41.874;12.526;2023-07-31T03:53:25;10.10;;;5.20;;
40537;SDS011;27925;41.874;12.526;2023-07-31T03:55:51;11.25;;;5.43;;
40537;SDS011;27925;41.874;12.526;2023-07-31T03:58:17;9.45;;;5.05;;
40537;SDS011;27925;41.874;12.526;2023-07-31T04:00:42;11.52;;;4.97;;
40537;SDS011;27925;41.874;12.526;2023-07-31T04:03:08;10.00;;;4.63;;
40537;SDS011;27925;41.874;12.526;2023-07-31T04:05:37;9.23;;;4.78;;
40537;SDS011;27925;41.874;12.526;2023-07-31T04:08:04;10.52;;;5.32;;
40537;SDS011;27925;41.874;12.526;2023-07-31T04:10:30;10.88;;;5.72;;
40537;SDS011;27925;41.874;12.526;2023-07-31T04:12:58;12.88;;;5.63;;
40537;SDS011;27925;41.874;12.526;2023-07-31T04:15:24;12.20;;;5.47;;
40537;SDS011;27925;41.874;12.526;2023-07-31T04:17:50;14.57;;;6.10;;
40537;SDS011;27925;41.874;12.526;2023-07-31T04:20:15;11.93;;;6.43;;
40537;SDS011;27925;41.874;12.526;2023-07-31T04:22:41;11.10;;;5.65;;
40537;SDS011;27925;41.874;12.526;2023-07-31T04:25:07;14.05;;;5.47;;
40537;SDS011;27925;41.874;12.526;2023-07-31T04:27:33;10.68;;;5.13;;
40537;SDS011;27925;41.874;12.526;2023-07-31T04:29:58;11.32;;;5.65;;
40537;SDS011;27925;41.874;12.526;2023-07-31T04:32:24;11.75;;;5.00;;
40537;SDS011;27925;41.874;12.526;2023-07-31T04:34:50;9.18;;;5.00;;
40537;SDS011;27925;41.874;12.526;2023-07-31T04:37:15;9.15;;;5.30;;
40537;SDS011;27925;41.874;12.526;2023-07-31T04:39:41;11.60;;;5.13;;
40537;SDS011;27925;41.874;12.526;2023-07-31T04:42:07;10.77;;;4.60;;
40537;SDS011;27925;41.874;12.526;2023-07-31T04:44:32;9.85;;;4.47;;
40537;SDS011;27925;41.874;12.526;2023-07-31T04:46:58;12.52;;;4.60;;
40537;SDS011;27925;41.874;12.526;2023-07-31T04:49:24;10.23;;;4.63;;
40537;SDS011;27925;41.874;12.526;2023-07-31T04:51:49;12.60;;;4.90;;
40537;SDS011;27925;41.874;12.526;2023-07-31T04:54:15;9.48;;;4.70;;
40537;SDS011;27925;41.874;12.526;2023-07-31T04:56:41;10.35;;;5.40;;
40537;SDS011;27925;41.874;12.526;2023-07-31T04:59:06;11.57;;;5.28;;
40537;SDS011;27925;41.874;12.526;2023-07-31T05:01:32;9.60;;;5.20;;
40537;SDS011;27925;41.874;12.526;2023-07-31T05:03:58;12.02;;;5.50;;
40537;SDS011;27925;41.874;12.526;2023-07-31T05:06:24;9.32;;;5.40;;
40537;SDS011;27925;41.874;12.526;2023-07-31T05:08:49;13.10;;;5.05;;
40537;SDS011;27925;41.874;12.526;2023-07-31T05:11:15;10.63;;;5.18;;
40537;SDS011;27925;41.874;12.526;2023-07-31T05:13:41;11.60;;;4.93;;
40537;SDS011;27925;41.874;12.526;2023-07-31T05:16:06;15.00;;;4.90;;
40537;SDS011;27925;41.874;12.526;2023-07-31T05:18:32;8.93;;;4.25;;
40537;SDS011;27925;41.874;12.526;2023-07-31T05:20:58;9.80;;;5.00;;
40537;SDS011;27925;41.874;12.526;2023-07-31T05:23:23;11.27;;;4.95;;
40537;SDS011;27925;41.874;12.526;2023-07-31T05:25:49;13.27;;;4.80;;
40537;SDS011;27925;41.874;12.526;2023-07-31T05:28:15;8.85;;;4.30;;
40537;SDS011;27925;41.874;12.526;2023-07-31T05:30:40;12.35;;;5.13;;
40537;SDS011;27925;41.874;12.526;2023-07-31T05:33:06;10.80;;;4.82;;
40537;SDS011;27925;41.874;12.526;2023-07-31T05:35:31;8.18;;;5.05;;
40537;SDS011;27925;41.874;12.526;2023-07-31T05:37:57;11.30;;;5.25;;
40537;SDS011;27925;41.874;12.526;2023-07-31T05:40:23;8.52;;;4.82;;
40537;SDS011;27925;41.874;12.526;2023-07-31T05:42:48;9.63;;;4.68;;
40537;SDS011;27925;41.874;12.526;2023-07-31T05:45:14;10.93;;;4.53;;
40537;SDS011;27925;41.874;12.526;2023-07-31T05:47:40;11.60;;;5.32;;
40537;SDS011;27925;41.874;12.526;2023-07-31T05:50:06;11.18;;;4.95;;
40537;SDS011;27925;41.874;12.526;2023-07-31T05:52:31;9.52;;;4.85;;
40537;SDS011;27925;41.874;12.526;2023-07-31T05:54:57;14.20;;;5.55;;
40537;SDS011;27925;41.874;12.526;2023-07-31T05:57:23;16.35;;;5.00;;
40537;SDS011;27925;41.874;12.526;2023-07-31T05:59:49;17.70;;;5.10;;
40537;SDS011;27925;41.874;12.526;2023-07-31T06:02:14;12.98;;;4.47;;
40537;SDS011;27925;41.874;12.526;2023-07-31T06:04:40;11.52;;;4.53;;
40537;SDS011;27925;41.874;12.526;2023-07-31T06:07:05;11.25;;;4.93;;
40537;SDS011;27925;41.874;12.526;2023-07-31T06:09:31;11.38;;;4.88;;
40537;SDS011;27925;41.874;12.526;2023-07-31T06:11:57;7.45;;;4.40;;
40537;SDS011;27925;41.874;12.526;2023-07-31T06:14:23;11.30;;;4.57;;
40537;SDS011;27925;41.874;12.526;2023-07-31T06:16:49;9.45;;;4.45;;
40537;SDS011;27925;41.874;12.526;2023-07-31T06:19:14;11.27;;;4.93;;
40537;SDS011;27925;41.874;12.526;2023-07-31T06:21:40;13.90;;;5.07;;
40537;SDS011;27925;41.874;12.526;2023-07-31T06:24:08;12.77;;;5.20;;
40537;SDS011;27925;41.874;12.526;2023-07-31T06:26:34;10.35;;;4.90;;
40537;SDS011;27925;41.874;12.526;2023-07-31T06:29:00;9.27;;;5.00;;
40537;SDS011;27925;41.874;12.526;2023-07-31T06:31:25;13.43;;;4.65;;
40537;SDS011;27925;41.874;12.526;2023-07-31T06:33:51;14.70;;;4.65;;
40537;SDS011;27925;41.874;12.526;2023-07-31T06:36:17;10.55;;;4.70;;
40537;SDS011;27925;41.874;12.526;2023-07-31T06:38:43;13.25;;;4.50;;
40537;SDS011;27925;41.874;12.526;2023-07-31T06:41:09;9.75;;;4.43;;
40537;SDS011;27925;41.874;12.526;2023-07-31T06:43:35;13.52;;;4.90;;
40537;SDS011;27925;41.874;12.526;2023-07-31T06:46:07;10.70;;;4.70;;
40537;SDS011;27925;41.874;12.526;2023-07-31T06:48:34;10.65;;;4.85;;
40537;SDS011;27925;41.874;12.526;2023-07-31T06:51:02;11.07;;;4.97;;
40537;SDS011;27925;41.874;12.526;2023-07-31T06:53:28;14.25;;;4.57;;
40537;SDS011;27925;41.874;12.526;2023-07-31T06:55:54;11.93;;;5.28;;
40537;SDS011;27925;41.874;12.526;2023-07-31T06:58:20;13.82;;;4.93;;
40537;SDS011;27925;41.874;12.526;2023-07-31T07:00:46;13.05;;;4.65;;
40537;SDS011;27925;41.874;12.526;2023-07-31T07:03:11;10.70;;;4.70;;
40537;SDS011;27925;41.874;12.526;2023-07-31T07:05:39;13.27;;;5.38;;
40537;SDS011;27925;41.874;12.526;2023-07-31T07:08:05;12.38;;;4.43;;
40537;SDS011;27925;41.874;12.526;2023-07-31T07:10:31;15.27;;;4.85;;
40537;SDS011;27925;41.874;12.526;2023-07-31T07:12:56;15.52;;;4.95;;
40537;SDS011;27925;41.874;12.526;2023-07-31T07:15:22;14.68;;;4.88;;
40537;SDS011;27925;41.874;12.526;2023-07-31T07:17:48;11.75;;;4.57;;
40537;SDS011;27925;41.874;12.526;2023-07-31T07:20:14;11.85;;;4.75;;
40537;SDS011;27925;41.874;12.526;2023-07-31T07:22:39;11.63;;;4.82;;
40537;SDS011;27925;41.874;12.526;2023-07-31T07:25:08;10.00;;;4.18;;
40537;SDS011;27925;41.874;12.526;2023-07-31T07:27:34;8.45;;;3.70;;
40537;SDS011;27925;41.874;12.526;2023-07-31T07:29:59;13.98;;;5.10;;
40537;SDS011;27925;41.874;12.526;2023-07-31T07:32:25;13.60;;;4.28;;
40537;SDS011;27925;41.874;12.526;2023-07-31T07:34:51;9.98;;;4.55;;
40537;SDS011;27925;41.874;12.526;2023-07-31T07:37:17;10.00;;;4.32;;
40537;SDS011;27925;41.874;12.526;2023-07-31T07:39:43;10.73;;;4.28;;
40537;SDS011;27925;41.874;12.526;2023-07-31T07:42:08;11.02;;;4.55;;
40537;SDS011;27925;41.874;12.526;2023-07-31T07:44:34;9.43;;;4.40;;
40537;SDS011;27925;41.874;12.526;2023-07-31T07:47:00;9.77;;;4.53;;
40537;SDS011;27925;41.874;12.526;2023-07-31T07:49:25;12.38;;;4.35;;
40537;SDS011;27925;41.874;12.526;2023-07-31T07:51:51;10.90;;;4.18;;
40537;SDS011;27925;41.874;12.526;2023-07-31T07:54:17;12.40;;;4.22;;
40537;SDS011;27925;41.874;12.526;2023-07-31T07:56:42;10.20;;;3.88;;
40537;SDS011;27925;41.874;12.526;2023-07-31T07:59:08;11.27;;;4.70;;
40537;SDS011;27925;41.874;12.526;2023-07-31T08:01:34;7.45;;;4.10;;
40537;SDS011;27925;41.874;12.526;2023-07-31T08:04:00;8.63;;;3.70;;
40537;SDS011;27925;41.874;12.526;2023-07-31T08:06:25;12.43;;;4.10;;
40537;SDS011;27925;41.874;12.526;2023-07-31T08:08:51;11.65;;;4.03;;
40537;SDS011;27925;41.874;12.526;2023-07-31T08:11:17;9.32;;;4.07;;
40537;SDS011;27925;41.874;12.526;2023-07-31T08:13:42;12.10;;;4.32;;
40537;SDS011;27925;41.874;12.526;2023-07-31T08:16:08;11.27;;;4.38;;
40537;SDS011;27925;41.874;12.526;2023-07-31T08:18:35;9.00;;;3.97;;
40537;SDS011;27925;41.874;12.526;2023-07-31T08:21:01;11.48;;;4.07;;
40537;SDS011;27925;41.874;12.526;2023-07-31T08:23:28;8.57;;;4.03;;
40537;SDS011;27925;41.874;12.526;2023-07-31T08:25:53;13.68;;;4.22;;
40537;SDS011;27925;41.874;12.526;2023-07-31T08:28:19;12.50;;;3.83;;
40537;SDS011;27925;41.874;12.526;2023-07-31T08:30:45;8.32;;;3.70;;
40537;SDS011;27925;41.874;12.526;2023-07-31T08:33:10;8.38;;;3.50;;
40537;SDS011;27925;41.874;12.526;2023-07-31T08:35:36;10.20;;;3.78;;
40537;SDS011;27925;41.874;12.526;2023-07-31T08:38:02;14.70;;;3.50;;
40537;SDS011;27925;41.874;12.526;2023-07-31T08:40:28;7.88;;;3.40;;
40537;SDS011;27925;41.874;12.526;2023-07-31T08:42:54;12.73;;;3.90;;
40537;SDS011;27925;41.874;12.526;2023-07-31T08:45:27;7.68;;;3.45;;
40537;SDS011;27925;41.874;12.526;2023-07-31T08:47:53;7.80;;;2.88;;
40537;SDS011;27925;41.874;12.526;2023-07-31T08:50:20;8.18;;;3.63;;
40537;SDS011;27925;41.874;12.526;2023-07-31T08:52:47;10.32;;;3.75;;
40537;SDS011;27925;41.874;12.526;2023-07-31T08:55:14;10.80;;;3.40;;
40537;SDS011;27925;41.874;12.526;2023-07-31T08:57:40;10.23;;;4.28;;
40537;SDS011;27925;41.874;12.526;2023-07-31T09:00:07;12.55;;;3.88;;
40537;SDS011;27925;41.874;12.526;2023-07-31T09:02:39;14.70;;;3.85;;
40537;SDS011;27925;41.874;12.526;2023-07-31T09:05:11;17.98;;;4.30;;
40537;SDS011;27925;41.874;12.526;2023-07-31T09:07:37;24.40;;;4.57;;
40537;SDS011;27925;41.874;12.526;2023-07-31T09:10:04;14.02;;;2.92;;
40537;SDS011;27925;41.874;12.526;2023-07-31T09:12:31;12.18;;;3.55;;
40537;SDS011;27925;41.874;12.526;2023-07-31T09:15:00;7.65;;;3.00;;
40537;SDS011;27925;41.874;12.526;2023-07-31T09:17:32;9.60;;;2.85;;
40537;SDS011;27925;41.874;12.526;2023-07-31T09:20:20;8.60;;;3.20;;
40537;SDS011;27925;41.874;12.526;2023-07-31T09:22:46;6.95;;;3.13;;
40537;SDS011;27925;41.874;12.526;2023-07-31T09:25:25;12.93;;;3.10;;
40537;SDS011;27925;41.874;12.526;2023-07-31T09:27:52;10.63;;;3.50;;
40537;SDS011;27925;41.874;12.526;2023-07-31T09:32:50;9.57;;;3.35;;
40537;SDS011;27925;41.874;12.526;2023-07-31T09:37:50;11.30;;;3.30;;
40537;SDS011;27925;41.874;12.526;2023-07-31T09:40:26;8.73;;;3.22;;
40537;SDS011;27925;41.874;12.526;2023-07-31T09:42:53;6.82;;;3.25;;
40537;SDS011;27925;41.874;12.526;2023-07-31T09:45:21;6.38;;;3.20;;
40537;SDS011;27925;41.874;12.526;2023-07-31T09:47:47;6.00;;;2.60;;
40537;SDS011;27925;41.874;12.526;2023-07-31T09:50:14;6.60;;;3.10;;
40537;SDS011;27925;41.874;12.526;2023-07-31T09:52:41;7.18;;;3.20;;
40537;SDS011;27925;41.874;12.526;2023-07-31T09:55:07;7.05;;;3.45;;
40537;SDS011;27925;41.874;12.526;2023-07-31T09:57:34;9.45;;;3.05;;
40537;SDS011;27925;41.874;12.526;2023-07-31T10:00:04;5.47;;;2.63;;
40537;SDS011;27925;41.874;12.526;2023-07-31T10:02:31;6.78;;;2.75;;
40537;SDS011;27925;41.874;12.526;2023-07-31T10:04:57;7.55;;;2.90;;
40537;SDS011;27925;41.874;12.526;2023-07-31T10:07:26;6.00;;;2.70;;
40537;SDS011;27925;41.874;12.526;2023-07-31T10:09:55;7.20;;;2.70;;
40537;SDS011;27925;41.874;12.526;2023-07-31T10:12:25;5.50;;;2.80;;
40537;SDS011;27925;41.874;12.526;2023-07-31T10:14:55;8.50;;;3.20;;
40537;SDS011;27925;41.874;12.526;2023-07-31T10:17:22;5.53;;;2.78;;
40537;SDS011;27925;41.874;12.526;2023-07-31T10:19:49;7.22;;;2.45;;
40537;SDS011;27925;41.874;12.526;2023-07-31T10:22:15;7.45;;;2.85;;
40537;SDS011;27925;41.874;12.526;2023-07-31T10:24:45;6.45;;;2.67;;
40537;SDS011;27925;41.874;12.526;2023-07-31T10:27:11;5.60;;;2.83;;
40537;SDS011;27925;41.874;12.526;2023-07-31T10:29:37;8.82;;;3.00;;
40537;SDS011;27925;41.874;12.526;2023-07-31T10:32:05;6.75;;;2.53;;
40537;SDS011;27925;41.874;12.526;2023-07-31T10:34:35;6.57;;;2.60;;
40537;SDS011;27925;41.874;12.526;2023-07-31T10:42:34;5.20;;;2.42;;
40537;SDS011;27925;41.874;12.526;2023-07-31T10:45:04;7.57;;;2.58;;
40537;SDS011;27925;41.874;12.526;2023-07-31T10:47:42;7.10;;;2.70;;
40537;SDS011;27925;41.874;12.526;2023-07-31T10:50:13;9.20;;;3.03;;
40537;SDS011;27925;41.874;12.526;2023-07-31T10:52:51;15.98;;;3.35;;
40537;SDS011;27925;41.874;12.526;2023-07-31T10:57:49;6.72;;;2.60;;
40537;SDS011;27925;41.874;12.526;2023-07-31T11:00:22;6.80;;;2.78;;
40537;SDS011;27925;41.874;12.526;2023-07-31T11:02:58;6.80;;;3.38;;
40537;SDS011;27925;41.874;12.526;2023-07-31T11:08:17;5.28;;;2.67;;
40537;SDS011;27925;41.874;12.526;2023-07-31T11:10:50;6.65;;;2.97;;
40537;SDS011;27925;41.874;12.526;2023-07-31T11:13:29;11.05;;;3.40;;
40537;SDS011;27925;41.874;12.526;2023-07-31T11:15:57;4.75;;;2.80;;
40537;SDS011;27925;41.874;12.526;2023-07-31T11:18:23;5.88;;;2.63;;
40537;SDS011;27925;41.874;12.526;2023-07-31T11:20:50;6.45;;;2.92;;
40537;SDS011;27925;41.874;12.526;2023-07-31T11:23:16;5.78;;;2.90;;
40537;SDS011;27925;41.874;12.526;2023-07-31T11:25:42;5.70;;;3.10;;
40537;SDS011;27925;41.874;12.526;2023-07-31T11:28:09;6.38;;;2.67;;
40537;SDS011;27925;41.874;12.526;2023-07-31T11:30:36;7.30;;;2.90;;
40537;SDS011;27925;41.874;12.526;2023-07-31T11:33:03;15.63;;;3.67;;
40537;SDS011;27925;41.874;12.526;2023-07-31T11:35:33;8.77;;;2.95;;
40537;SDS011;27925;41.874;12.526;2023-07-31T11:38:10;6.40;;;3.42;;
40537;SDS011;27925;41.874;12.526;2023-07-31T11:40:50;6.35;;;3.40;;
40537;SDS011;27925;41.874;12.526;2023-07-31T11:43:17;6.43;;;3.00;;
40537;SDS011;27925;41.874;12.526;2023-07-31T11:45:47;7.07;;;2.92;;
40537;SDS011;27925;41.874;12.526;2023-07-31T11:48:33;7.50;;;3.00;;
40537;SDS011;27925;41.874;12.526;2023-07-31T11:51:02;7.18;;;3.38;;
40537;SDS011;27925;41.874;12.526;2023-07-31T11:56:07;5.50;;;2.97;;
40537;SDS011;27925;41.874;12.526;2023-07-31T11:58:35;12.05;;;3.30;;
40537;SDS011;27925;41.874;12.526;2023-07-31T12:01:03;5.85;;;3.00;;
40537;SDS011;27925;41.874;12.526;2023-07-31T12:03:30;5.72;;;3.10;;
40537;SDS011;27925;41.874;12.526;2023-07-31T12:05:57;6.68;;;2.97;;
40537;SDS011;27925;41.874;12.526;2023-07-31T12:08:24;6.78;;;3.50;;
40537;SDS011;27925;41.874;12.526;2023-07-31T12:10:50;9.35;;;2.88;;
40537;SDS011;27925;41.874;12.526;2023-07-31T12:13:21;7.85;;;3.08;;
40537;SDS011;27925;41.874;12.526;2023-07-31T12:15:58;9.48;;;3.70;;
40537;SDS011;27925;41.874;12.526;2023-07-31T12:18:29;9.48;;;3.75;;
40537;SDS011;27925;41.874;12.526;2023-07-31T12:21:05;8.98;;;3.92;;
40537;SDS011;27925;41.874;12.526;2023-07-31T12:23:34;7.45;;;3.85;;
40537;SDS011;27925;41.874;12.526;2023-07-31T12:26:04;9.60;;;3.92;;
40537;SDS011;27925;41.874;12.526;2023-07-31T12:28:35;8.00;;;3.58;;
40537;SDS011;27925;41.874;12.526;2023-07-31T12:31:01;10.98;;;4.15;;
40537;SDS011;27925;41.874;12.526;2023-07-31T12:33:34;8.70;;;3.92;;
40537;SDS011;27925;41.874;12.526;2023-07-31T12:36:01;12.57;;;4.10;;
40537;SDS011;27925;41.874;12.526;2023-07-31T12:38:29;10.35;;;3.92;;
40537;SDS011;27925;41.874;12.526;2023-07-31T12:40:55;7.40;;;3.65;;
40537;SDS011;27925;41.874;12.526;2023-07-31T12:43:21;8.82;;;3.70;;
40537;SDS011;27925;41.874;12.526;2023-07-31T12:45:47;13.82;;;5.05;;
40537;SDS011;27925;41.874;12.526;2023-07-31T12:48:12;11.90;;;4.32;;
40537;SDS011;27925;41.874;12.526;2023-07-31T12:50:38;8.23;;;3.90;;
40537;SDS011;27925;41.874;12.526;2023-07-31T12:53:05;9.60;;;4.22;;
40537;SDS011;27925;41.874;12.526;2023-07-31T12:55:31;10.88;;;3.75;;
40537;SDS011;27925;41.874;12.526;2023-07-31T12:57:59;9.48;;;4.43;;
40537;SDS011;27925;41.874;12.526;2023-07-31T13:00:26;12.73;;;4.22;;
40537;SDS011;27925;41.874;12.526;2023-07-31T13:02:51;15.88;;;3.90;;
40537;SDS011;27925;41.874;12.526;2023-07-31T13:05:18;10.23;;;3.92;;
40537;SDS011;27925;41.874;12.526;2023-07-31T13:07:47;11.07;;;4.38;;
40537;SDS011;27925;41.874;12.526;2023-07-31T13:10:13;10.00;;;3.90;;
40537;SDS011;27925;41.874;12.526;2023-07-31T13:12:39;9.88;;;3.80;;
40537;SDS011;27925;41.874;12.526;2023-07-31T13:15:05;8.10;;;3.40;;
40537;SDS011;27925;41.874;12.526;2023-07-31T13:17:32;7.65;;;3.53;;
40537;SDS011;27925;41.874;12.526;2023-07-31T13:19:58;15.75;;;4.28;;
40537;SDS011;27925;41.874;12.526;2023-07-31T13:22:24;11.77;;;4.03;;
40537;SDS011;27925;41.874;12.526;2023-07-31T13:24:50;10.70;;;3.95;;
40537;SDS011;27925;41.874;12.526;2023-07-31T13:27:15;11.82;;;3.83;;
40537;SDS011;27925;41.874;12.526;2023-07-31T13:29:44;11.05;;;4.20;;
40537;SDS011;27925;41.874;12.526;2023-07-31T13:32:10;9.98;;;3.33;;
40537;SDS011;27925;41.874;12.526;2023-07-31T13:34:36;8.75;;;3.67;;
40537;SDS011;27925;41.874;12.526;2023-07-31T13:37:02;12.70;;;3.92;;
40537;SDS011;27925;41.874;12.526;2023-07-31T13:39:27;10.88;;;3.30;;
40537;SDS011;27925;41.874;12.526;2023-07-31T13:41:53;11.52;;;4.13;;
40537;SDS011;27925;41.874;12.526;2023-07-31T13:44:20;13.07;;;3.65;;
40537;SDS011;27925;41.874;12.526;2023-07-31T13:46:45;12.23;;;4.28;;
40537;SDS011;27925;41.874;12.526;2023-07-31T13:49:11;11.52;;;3.72;;
40537;SDS011;27925;41.874;12.526;2023-07-31T13:51:36;9.02;;;3.65;;
40537;SDS011;27925;41.874;12.526;2023-07-31T13:54:04;13.23;;;3.90;;
40537;SDS011;27925;41.874;12.526;2023-07-31T13:56:31;12.43;;;3.85;;
40537;SDS011;27925;41.874;12.526;2023-07-31T13:58:58;10.23;;;3.63;;
40537;SDS011;27925;41.874;12.526;2023-07-31T14:01:25;10.60;;;3.80;;
40537;SDS011;27925;41.874;12.526;2023-07-31T14:03:51;9.48;;;3.67;;
40537;SDS011;27925;41.874;12.526;2023-07-31T14:06:17;7.22;;;3.50;;
40537;SDS011;27925;41.874;12.526;2023-07-31T14:08:42;12.15;;;3.85;;
40537;SDS011;27925;41.874;12.526;2023-07-31T14:11:08;10.07;;;3.70;;
40537;SDS011;27925;41.874;12.526;2023-07-31T14:13:34;10.07;;;3.42;;
40537;SDS011;27925;41.874;12.526;2023-07-31T14:15:59;12.52;;;3.75;;
40537;SDS011;27925;41.874;12.526;2023-07-31T14:18:25;10.18;;;3.40;;
40537;SDS011;27925;41.874;12.526;2023-07-31T14:20:51;10.32;;;4.40;;
40537;SDS011;27925;41.874;12.526;2023-07-31T14:23:17;10.88;;;3.33;;
40537;SDS011;27925;41.874;12.526;2023-07-31T14:25:44;14.55;;;3.70;;
40537;SDS011;27925;41.874;12.526;2023-07-31T14:28:10;9.20;;;3.40;;
40537;SDS011;27925;41.874;12.526;2023-07-31T14:30:36;11.88;;;3.88;;
40537;SDS011;27925;41.874;12.526;2023-07-31T14:33:02;11.55;;;3.85;;
40537;SDS011;27925;41.874;12.526;2023-07-31T14:35:28;12.43;;;3.90;;
40537;SDS011;27925;41.874;12.526;2023-07-31T14:37:54;14.57;;;4.13;;
40537;SDS011;27925;41.874;12.526;2023-07-31T14:40:19;10.60;;;3.72;;
40537;SDS011;27925;41.874;12.526;2023-07-31T14:42:45;9.02;;;3.58;;
40537;SDS011;27925;41.874;12.526;2023-07-31T14:45:11;11.45;;;3.72;;
40537;SDS011;27925;41.874;12.526;2023-07-31T14:47:37;10.48;;;4.05;;